sensor_id;sensor_type;location;lat;lon;timestamp;temperature;humidity
27162;DHT22;54464;50.558;9.704;2023-05-07T00:01:07;16.00;99.90
27162;DHT22;54464;50.558;9.704;2023-05-07T00:03:33;15.90;99.90
27162;DHT22;54464;50.558;9.704;2023-05-07T00:05:58;15.90;99.90
27162;DHT22;54464;50.558;9.704;2023-05-07T00:08:24;15.90;99.90
27162;DHT22;54464;50.558;9.704;2023-05-07T00:10:50;15.80;99.90
27162;DHT22;54464;50.558;9.704;2023-05-07T00:13:15;15.80;99.90
27162;DHT22;54464;50.558;9.704;2023-05-07T00:15:41;15.90;99.90
27162;DHT22;54464;50.558;9.704;2023-05-07T00:18:06;15.90;99.90
27162;DHT22;54464;50.558;9.704;2023-05-07T00:20:32;15.80;99.90
27162;DHT22;54464;50.558;9.704;2023-05-07T00:22:57;15.70;99.90
27162;DHT22;54464;50.558;9.704;2023-05-07T00:25:23;15.80;99.90
27162;DHT22;54464;50.558;9.704;2023-05-07T00:27:48;15.80;99.90
27162;DHT22;54464;50.558;9.704;2023-05-07T00:30:14;15.80;99.90
27162;DHT22;54464;50.558;9.704;2023-05-07T00:32:40;15.70;99.90
27162;DHT22;54464;50.558;9.704;2023-05-07T00:35:06;15.70;99.90
27162;DHT22;54464;50.558;9.704;2023-05-07T00:37:32;15.60;99.90
27162;DHT22;54464;50.558;9.704;2023-05-07T00:39:58;15.60;99.90
27162;DHT22;54464;50.558;9.704;2023-05-07T00:42:23;15.70;99.90
27162;DHT22;54464;50.558;9.704;2023-05-07T00:44:49;15.70;99.90
27162;DHT22;54464;50.558;9.704;2023-05-07T00:47:15;15.80;99.90
27162;DHT22;54464;50.558;9.704;2023-05-07T00:49:43;15.70;99.90
27162;DHT22;54464;50.558;9.704;2023-05-07T00:52:14;15.70;99.90
27162;DHT22;54464;50.558;9.704;2023-05-07T00:54:41;15.80;99.90
27162;DHT22;54464;50.558;9.704;2023-05-07T00:57:09;15.80;99.90
27162;DHT22;54464;50.558;9.704;2023-05-07T00:59:36;15.70;99.90
27162;DHT22;54464;50.558;9.704;2023-05-07T01:02:02;15.80;99.90
27162;DHT22;54464;50.558;9.704;2023-05-07T01:04:27;15.70;99.90
27162;DHT22;54464;50.558;9.704;2023-05-07T01:06:55;15.80;99.90
27162;DHT22;54464;50.558;9.704;2023-05-07T01:09:22;15.70;99.90
27162;DHT22;54464;50.558;9.704;2023-05-07T01:11:50;15.70;99.90
27162;DHT22;54464;50.558;9.704;2023-05-07T01:14:17;15.70;99.90
27162;DHT22;54464;50.558;9.704;2023-05-07T01:16:43;15.70;99.90
27162;DHT22;54464;50.558;9.704;2023-05-07T01:19:09;15.60;99.90
27162;DHT22;54464;50.558;9.704;2023-05-07T01:21:37;15.60;99.90
27162;DHT22;54464;50.558;9.704;2023-05-07T01:24:04;15.50;99.90
27162;DHT22;54464;50.558;9.704;2023-05-07T01:26:30;15.50;99.90
27162;DHT22;54464;50.558;9.704;2023-05-07T01:28:56;15.50;99.90
27162;DHT22;54464;50.558;9.704;2023-05-07T01:31:24;15.40;99.90
27162;DHT22;54464;50.558;9.704;2023-05-07T01:33:51;15.40;99.90
27162;DHT22;54464;50.558;9.704;2023-05-07T01:36:18;15.50;99.90
27162;DHT22;54464;50.558;9.704;2023-05-07T01:38:46;15.40;99.90
27162;DHT22;54464;50.558;9.704;2023-05-07T01:41:12;15.40;99.90
27162;DHT22;54464;50.558;9.704;2023-05-07T01:43:40;15.40;99.90
27162;DHT22;54464;50.558;9.704;2023-05-07T01:46:07;15.30;99.90
27162;DHT22;54464;50.558;9.704;2023-05-07T01:48:34;15.30;99.90
27162;DHT22;54464;50.558;9.704;2023-05-07T01:51:01;15.20;99.90
27162;DHT22;54464;50.558;9.704;2023-05-07T01:53:27;15.20;99.90
27162;DHT22;54464;50.558;9.704;2023-05-07T01:55:53;15.20;99.90
27162;DHT22;54464;50.558;9.704;2023-05-07T01:58:19;15.20;99.90
27162;DHT22;54464;50.558;9.704;2023-05-07T02:00:44;15.20;99.90
27162;DHT22;54464;50.558;9.704;2023-05-07T02:03:10;15.10;99.90
27162;DHT22;54464;50.558;9.704;2023-05-07T02:05:36;15.10;99.90
27162;DHT22;54464;50.558;9.704;2023-05-07T02:08:01;15.20;99.90
27162;DHT22;54464;50.558;9.704;2023-05-07T02:10:27;15.20;99.90
27162;DHT22;54464;50.558;9.704;2023-05-07T02:12:52;15.20;99.90
27162;DHT22;54464;50.558;9.704;2023-05-07T02:15:18;15.00;99.90
27162;DHT22;54464;50.558;9.704;2023-05-07T02:18:03;15.00;99.90
27162;DHT22;54464;50.558;9.704;2023-05-07T02:20:29;15.10;99.90
27162;DHT22;54464;50.558;9.704;2023-05-07T02:22:54;15.00;99.90
27162;DHT22;54464;50.558;9.704;2023-05-07T02:25:20;14.90;99.90
27162;DHT22;54464;50.558;9.704;2023-05-07T02:27:45;15.00;99.90
27162;DHT22;54464;50.558;9.704;2023-05-07T02:30:11;15.00;99.90
27162;DHT22;54464;50.558;9.704;2023-05-07T02:32:37;15.00;99.90
27162;DHT22;54464;50.558;9.704;2023-05-07T02:35:03;15.00;99.90
27162;DHT22;54464;50.558;9.704;2023-05-07T02:37:28;15.00;99.90
27162;DHT22;54464;50.558;9.704;2023-05-07T02:39:54;14.90;99.90
27162;DHT22;54464;50.558;9.704;2023-05-07T02:42:20;14.90;99.90
27162;DHT22;54464;50.558;9.704;2023-05-07T02:44:45;14.90;99.90
27162;DHT22;54464;50.558;9.704;2023-05-07T02:47:11;14.90;99.90
27162;DHT22;54464;50.558;9.704;2023-05-07T02:49:38;14.90;99.90
27162;DHT22;54464;50.558;9.704;2023-05-07T02:52:04;14.90;99.90
27162;DHT22;54464;50.558;9.704;2023-05-07T02:54:29;14.90;99.90
27162;DHT22;54464;50.558;9.704;2023-05-07T02:56:55;14.90;99.90
27162;DHT22;54464;50.558;9.704;2023-05-07T02:59:21;14.90;99.90
27162;DHT22;54464;50.558;9.704;2023-05-07T03:01:47;15.00;99.90
27162;DHT22;54464;50.558;9.704;2023-05-07T03:04:16;15.00;99.90
27162;DHT22;54464;50.558;9.704;2023-05-07T03:06:42;15.00;99.90
27162;DHT22;54464;50.558;9.704;2023-05-07T03:09:07;15.00;99.90
27162;DHT22;54464;50.558;9.704;2023-05-07T03:11:33;15.10;99.90
27162;DHT22;54464;50.558;9.704;2023-05-07T03:14:01;15.10;99.90
27162;DHT22;54464;50.558;9.704;2023-05-07T03:16:26;15.10;99.90
27162;DHT22;54464;50.558;9.704;2023-05-07T03:18:52;15.10;99.90
27162;DHT22;54464;50.558;9.704;2023-05-07T03:21:18;15.20;99.90
27162;DHT22;54464;50.558;9.704;2023-05-07T03:23:43;15.10;99.90
27162;DHT22;54464;50.558;9.704;2023-05-07T03:26:09;15.10;99.90
27162;DHT22;54464;50.558;9.704;2023-05-07T03:28:35;15.10;99.90
27162;DHT22;54464;50.558;9.704;2023-05-07T03:31:00;15.10;99.90
27162;DHT22;54464;50.558;9.704;2023-05-07T03:33:26;15.00;99.90
27162;DHT22;54464;50.558;9.704;2023-05-07T03:35:55;15.00;99.90
27162;DHT22;54464;50.558;9.704;2023-05-07T03:38:21;15.00;99.90
27162;DHT22;54464;50.558;9.704;2023-05-07T03:40:47;15.00;99.90
27162;DHT22;54464;50.558;9.704;2023-05-07T03:43:12;15.00;99.90
27162;DHT22;54464;50.558;9.704;2023-05-07T03:45:38;14.80;99.90
27162;DHT22;54464;50.558;9.704;2023-05-07T03:48:03;14.70;99.90
27162;DHT22;54464;50.558;9.704;2023-05-07T03:50:29;14.70;99.90
27162;DHT22;54464;50.558;9.704;2023-05-07T03:52:55;14.80;99.90
27162;DHT22;54464;50.558;9.704;2023-05-07T03:55:20;14.90;99.90
27162;DHT22;54464;50.558;9.704;2023-05-07T03:57:49;14.80;99.90
27162;DHT22;54464;50.558;9.704;2023-05-07T04:00:15;14.90;99.90
27162;DHT22;54464;50.558;9.704;2023-05-07T04:02:41;14.90;99.90
27162;DHT22;54464;50.558;9.704;2023-05-07T04:05:06;15.00;99.90
27162;DHT22;54464;50.558;9.704;2023-05-07T04:07:32;15.00;99.90
27162;DHT22;54464;50.558;9.704;2023-05-07T04:09:57;15.00;99.90
27162;DHT22;54464;50.558;9.704;2023-05-07T04:12:23;15.00;99.90
27162;DHT22;54464;50.558;9.704;2023-05-07T04:14:49;14.90;99.90
27162;DHT22;54464;50.558;9.704;2023-05-07T04:17:14;15.00;99.90
27162;DHT22;54464;50.558;9.704;2023-05-07T04:19:40;15.00;99.90
27162;DHT22;54464;50.558;9.704;2023-05-07T04:22:10;14.90;99.90
27162;DHT22;54464;50.558;9.704;2023-05-07T04:24:36;15.00;99.90
27162;DHT22;54464;50.558;9.704;2023-05-07T04:27:02;15.00;99.90
27162;DHT22;54464;50.558;9.704;2023-05-07T04:29:27;14.90;99.90
27162;DHT22;54464;50.558;9.704;2023-05-07T04:31:53;14.90;99.90
27162;DHT22;54464;50.558;9.704;2023-05-07T04:34:21;14.90;99.90
27162;DHT22;54464;50.558;9.704;2023-05-07T04:36:47;14.90;99.90
27162;DHT22;54464;50.558;9.704;2023-05-07T04:39:13;14.90;99.90
27162;DHT22;54464;50.558;9.704;2023-05-07T04:41:39;14.80;99.90
27162;DHT22;54464;50.558;9.704;2023-05-07T04:44:04;14.90;99.90
27162;DHT22;54464;50.558;9.704;2023-05-07T04:46:31;14.70;99.90
27162;DHT22;54464;50.558;9.704;2023-05-07T04:48:56;14.80;99.90
27162;DHT22;54464;50.558;9.704;2023-05-07T04:51:22;14.40;99.90
27162;DHT22;54464;50.558;9.704;2023-05-07T04:53:48;14.40;99.90
27162;DHT22;54464;50.558;9.704;2023-05-07T04:56:14;14.40;99.90
27162;DHT22;54464;50.558;9.704;2023-05-07T04:58:43;14.50;99.90
27162;DHT22;54464;50.558;9.704;2023-05-07T05:01:08;14.60;99.90
27162;DHT22;54464;50.558;9.704;2023-05-07T05:03:34;14.70;99.90
27162;DHT22;54464;50.558;9.704;2023-05-07T05:05:59;14.70;99.90
27162;DHT22;54464;50.558;9.704;2023-05-07T05:08:25;14.70;99.90
27162;DHT22;54464;50.558;9.704;2023-05-07T05:10:51;14.80;99.90
27162;DHT22;54464;50.558;9.704;2023-05-07T05:13:16;14.70;99.90
27162;DHT22;54464;50.558;9.704;2023-05-07T05:15:42;14.60;99.90
27162;DHT22;54464;50.558;9.704;2023-05-07T05:18:08;14.70;99.90
27162;DHT22;54464;50.558;9.704;2023-05-07T05:20:33;14.80;99.90
27162;DHT22;54464;50.558;9.704;2023-05-07T05:22:59;14.80;99.90
27162;DHT22;54464;50.558;9.704;2023-05-07T05:25:24;14.90;99.90
27162;DHT22;54464;50.558;9.704;2023-05-07T05:27:50;15.00;99.90
27162;DHT22;54464;50.558;9.704;2023-05-07T05:30:18;14.90;99.90
27162;DHT22;54464;50.558;9.704;2023-05-07T05:32:44;14.90;99.90
27162;DHT22;54464;50.558;9.704;2023-05-07T05:35:09;14.90;99.90
27162;DHT22;54464;50.558;9.704;2023-05-07T05:37:35;14.90;99.90
27162;DHT22;54464;50.558;9.704;2023-05-07T05:40:02;14.90;99.90
27162;DHT22;54464;50.558;9.704;2023-05-07T05:42:27;14.90;99.90
27162;DHT22;54464;50.558;9.704;2023-05-07T05:44:53;14.90;99.90
27162;DHT22;54464;50.558;9.704;2023-05-07T05:47:18;14.90;99.90
27162;DHT22;54464;50.558;9.704;2023-05-07T05:49:44;14.80;99.90
27162;DHT22;54464;50.558;9.704;2023-05-07T05:52:12;14.90;99.90
27162;DHT22;54464;50.558;9.704;2023-05-07T05:54:41;15.00;99.90
27162;DHT22;54464;50.558;9.704;2023-05-07T05:57:06;15.00;99.90
27162;DHT22;54464;50.558;9.704;2023-05-07T05:59:32;15.10;99.90
27162;DHT22;54464;50.558;9.704;2023-05-07T06:01:57;15.00;99.90
27162;DHT22;54464;50.558;9.704;2023-05-07T06:04:23;15.10;99.90
27162;DHT22;54464;50.558;9.704;2023-05-07T06:06:49;15.10;99.90
27162;DHT22;54464;50.558;9.704;2023-05-07T06:09:14;15.10;99.90
27162;DHT22;54464;50.558;9.704;2023-05-07T06:11:40;14.90;99.90
27162;DHT22;54464;50.558;9.704;2023-05-07T06:14:06;14.80;99.90
27162;DHT22;54464;50.558;9.704;2023-05-07T06:16:31;14.80;99.90
27162;DHT22;54464;50.558;9.704;2023-05-07T06:18:57;14.80;99.90
27162;DHT22;54464;50.558;9.704;2023-05-07T06:21:23;14.90;99.90
27162;DHT22;54464;50.558;9.704;2023-05-07T06:23:48;15.00;99.90
27162;DHT22;54464;50.558;9.704;2023-05-07T06:26:14;15.00;99.90
27162;DHT22;54464;50.558;9.704;2023-05-07T06:28:39;15.10;99.90
27162;DHT22;54464;50.558;9.704;2023-05-07T06:31:16;15.10;99.90
27162;DHT22;54464;50.558;9.704;2023-05-07T06:33:44;15.10;99.90
27162;DHT22;54464;50.558;9.704;2023-05-07T06:36:09;15.10;99.90
27162;DHT22;54464;50.558;9.704;2023-05-07T06:38:38;15.10;99.90
27162;DHT22;54464;50.558;9.704;2023-05-07T06:41:06;15.10;99.90
27162;DHT22;54464;50.558;9.704;2023-05-07T06:43:32;15.20;99.90
27162;DHT22;54464;50.558;9.704;2023-05-07T06:45:57;15.10;99.90
27162;DHT22;54464;50.558;9.704;2023-05-07T06:48:23;15.10;99.90
27162;DHT22;54464;50.558;9.704;2023-05-07T06:50:49;15.20;99.90
27162;DHT22;54464;50.558;9.704;2023-05-07T06:53:15;15.20;99.90
27162;DHT22;54464;50.558;9.704;2023-05-07T06:55:43;15.20;99.90
27162;DHT22;54464;50.558;9.704;2023-05-07T06:58:09;15.20;99.90
27162;DHT22;54464;50.558;9.704;2023-05-07T07:00:40;15.20;99.90
27162;DHT22;54464;50.558;9.704;2023-05-07T07:03:06;15.30;99.90
27162;DHT22;54464;50.558;9.704;2023-05-07T07:05:32;15.30;99.90
27162;DHT22;54464;50.558;9.704;2023-05-07T07:07:58;15.40;99.90
27162;DHT22;54464;50.558;9.704;2023-05-07T07:10:24;15.40;99.90
27162;DHT22;54464;50.558;9.704;2023-05-07T07:12:50;15.40;99.90
27162;DHT22;54464;50.558;9.704;2023-05-07T07:15:16;15.40;99.90
27162;DHT22;54464;50.558;9.704;2023-05-07T07:17:42;15.30;99.90
27162;DHT22;54464;50.558;9.704;2023-05-07T07:20:08;15.20;99.90
27162;DHT22;54464;50.558;9.704;2023-05-07T07:22:34;15.20;99.90
27162;DHT22;54464;50.558;9.704;2023-05-07T07:24:59;15.10;99.90
27162;DHT22;54464;50.558;9.704;2023-05-07T07:27:25;15.20;99.90
27162;DHT22;54464;50.558;9.704;2023-05-07T07:29:51;15.30;99.90
27162;DHT22;54464;50.558;9.704;2023-05-07T07:34:52;15.60;99.90
27162;DHT22;54464;50.558;9.704;2023-05-07T07:37:18;15.60;99.90
27162;DHT22;54464;50.558;9.704;2023-05-07T07:39:43;15.70;99.90
27162;DHT22;54464;50.558;9.704;2023-05-07T07:42:09;15.80;99.90
27162;DHT22;54464;50.558;9.704;2023-05-07T07:44:34;15.80;99.90
27162;DHT22;54464;50.558;9.704;2023-05-07T07:47:00;16.00;99.90
27162;DHT22;54464;50.558;9.704;2023-05-07T07:49:26;16.10;99.90
27162;DHT22;54464;50.558;9.704;2023-05-07T07:51:52;16.10;99.90
27162;DHT22;54464;50.558;9.704;2023-05-07T07:54:17;16.20;99.90
27162;DHT22;54464;50.558;9.704;2023-05-07T07:56:43;16.20;99.90
27162;DHT22;54464;50.558;9.704;2023-05-07T07:59:08;16.20;99.90
27162;DHT22;54464;50.558;9.704;2023-05-07T08:01:34;16.20;99.90
27162;DHT22;54464;50.558;9.704;2023-05-07T08:04:00;16.30;99.90
27162;DHT22;54464;50.558;9.704;2023-05-07T08:06:25;16.40;99.90
27162;DHT22;54464;50.558;9.704;2023-05-07T08:08:52;16.40;99.90
27162;DHT22;54464;50.558;9.704;2023-05-07T08:11:17;16.50;99.90
27162;DHT22;54464;50.558;9.704;2023-05-07T08:13:43;16.50;99.90
27162;DHT22;54464;50.558;9.704;2023-05-07T08:16:09;16.60;99.90
27162;DHT22;54464;50.558;9.704;2023-05-07T08:18:34;16.70;99.90
27162;DHT22;54464;50.558;9.704;2023-05-07T08:21:01;16.70;99.90
27162;DHT22;54464;50.558;9.704;2023-05-07T08:23:26;16.70;99.90
27162;DHT22;54464;50.558;9.704;2023-05-07T08:25:53;16.80;99.90
27162;DHT22;54464;50.558;9.704;2023-05-07T08:28:18;16.90;99.90
27162;DHT22;54464;50.558;9.704;2023-05-07T08:30:45;16.90;99.90
27162;DHT22;54464;50.558;9.704;2023-05-07T08:33:10;17.00;99.90
27162;DHT22;54464;50.558;9.704;2023-05-07T08:35:36;17.00;99.90
27162;DHT22;54464;50.558;9.704;2023-05-07T08:38:02;17.00;99.90
27162;DHT22;54464;50.558;9.704;2023-05-07T08:40:27;17.10;99.90
27162;DHT22;54464;50.558;9.704;2023-05-07T08:42:53;17.20;99.90
27162;DHT22;54464;50.558;9.704;2023-05-07T08:45:20;17.10;99.90
27162;DHT22;54464;50.558;9.704;2023-05-07T08:47:52;17.10;99.90
27162;DHT22;54464;50.558;9.704;2023-05-07T08:50:20;17.30;99.90
27162;DHT22;54464;50.558;9.704;2023-05-07T08:52:47;17.20;99.90
27162;DHT22;54464;50.558;9.704;2023-05-07T08:55:15;17.20;99.90
27162;DHT22;54464;50.558;9.704;2023-05-07T08:57:41;17.30;99.90
27162;DHT22;54464;50.558;9.704;2023-05-07T09:00:07;17.50;99.90
27162;DHT22;54464;50.558;9.704;2023-05-07T09:02:35;17.60;99.90
27162;DHT22;54464;50.558;9.704;2023-05-07T09:05:02;17.70;99.90
27162;DHT22;54464;50.558;9.704;2023-05-07T09:07:27;17.70;99.90
27162;DHT22;54464;50.558;9.704;2023-05-07T09:09:56;17.80;99.90
27162;DHT22;54464;50.558;9.704;2023-05-07T09:12:22;17.90;99.90
27162;DHT22;54464;50.558;9.704;2023-05-07T09:14:48;18.00;99.90
27162;DHT22;54464;50.558;9.704;2023-05-07T09:17:15;17.90;99.90
27162;DHT22;54464;50.558;9.704;2023-05-07T09:19:42;17.80;99.90
27162;DHT22;54464;50.558;9.704;2023-05-07T09:22:08;17.80;99.90
27162;DHT22;54464;50.558;9.704;2023-05-07T09:24:34;17.70;99.90
27162;DHT22;54464;50.558;9.704;2023-05-07T09:27:02;17.50;99.90
27162;DHT22;54464;50.558;9.704;2023-05-07T09:29:28;17.70;99.90
27162;DHT22;54464;50.558;9.704;2023-05-07T09:32:06;17.70;99.90
27162;DHT22;54464;50.558;9.704;2023-05-07T09:34:31;17.70;99.90
27162;DHT22;54464;50.558;9.704;2023-05-07T09:37:05;17.80;99.90
27162;DHT22;54464;50.558;9.704;2023-05-07T09:39:43;17.80;99.90
27162;DHT22;54464;50.558;9.704;2023-05-07T09:42:09;17.90;99.90
27162;DHT22;54464;50.558;9.704;2023-05-07T09:44:37;18.00;99.90
27162;DHT22;54464;50.558;9.704;2023-05-07T09:47:05;18.10;99.90
27162;DHT22;54464;50.558;9.704;2023-05-07T09:49:34;18.20;99.90
27162;DHT22;54464;50.558;9.704;2023-05-07T09:52:04;18.20;99.90
27162;DHT22;54464;50.558;9.704;2023-05-07T09:54:35;18.30;99.90
27162;DHT22;54464;50.558;9.704;2023-05-07T09:57:03;18.40;99.90
27162;DHT22;54464;50.558;9.704;2023-05-07T09:59:31;18.40;99.90
27162;DHT22;54464;50.558;9.704;2023-05-07T10:01:59;18.40;99.90
27162;DHT22;54464;50.558;9.704;2023-05-07T10:04:27;18.40;99.90
27162;DHT22;54464;50.558;9.704;2023-05-07T10:06:54;18.50;99.90
27162;DHT22;54464;50.558;9.704;2023-05-07T10:09:21;18.50;99.90
27162;DHT22;54464;50.558;9.704;2023-05-07T10:11:49;18.60;99.90
27162;DHT22;54464;50.558;9.704;2023-05-07T10:14:15;18.60;99.90
27162;DHT22;54464;50.558;9.704;2023-05-07T10:16:41;18.60;99.90
27162;DHT22;54464;50.558;9.704;2023-05-07T10:19:08;18.90;99.90
27162;DHT22;54464;50.558;9.704;2023-05-07T10:21:38;19.40;99.90
27162;DHT22;54464;50.558;9.704;2023-05-07T10:24:22;20.00;99.90
27162;DHT22;54464;50.558;9.704;2023-05-07T10:26:51;20.50;99.90
27162;DHT22;54464;50.558;9.704;2023-05-07T10:32:04;21.10;99.50
27162;DHT22;54464;50.558;9.704;2023-05-07T10:34:42;21.30;99.10
27162;DHT22;54464;50.558;9.704;2023-05-07T10:37:09;21.50;98.50
27162;DHT22;54464;50.558;9.704;2023-05-07T10:39:35;21.80;98.30
27162;DHT22;54464;50.558;9.704;2023-05-07T10:42:12;21.70;98.00
27162;DHT22;54464;50.558;9.704;2023-05-07T10:44:37;21.90;97.90
27162;DHT22;54464;50.558;9.704;2023-05-07T10:47:11;21.60;97.70
27162;DHT22;54464;50.558;9.704;2023-05-07T10:52:13;21.40;98.10
27162;DHT22;54464;50.558;9.704;2023-05-07T10:54:40;21.30;97.60
27162;DHT22;54464;50.558;9.704;2023-05-07T10:57:36;21.30;98.60
27162;DHT22;54464;50.558;9.704;2023-05-07T11:05:25;20.90;98.50
27162;DHT22;54464;50.558;9.704;2023-05-07T11:07:58;21.10;99.90
27162;DHT22;54464;50.558;9.704;2023-05-07T11:10:53;21.50;97.80
27162;DHT22;54464;50.558;9.704;2023-05-07T11:16:24;21.80;98.10
27162;DHT22;54464;50.558;9.704;2023-05-07T11:18:54;21.80;98.20
27162;DHT22;54464;50.558;9.704;2023-05-07T11:21:39;21.80;97.60
27162;DHT22;54464;50.558;9.704;2023-05-07T11:24:06;22.10;97.40
27162;DHT22;54464;50.558;9.704;2023-05-07T11:27:02;22.20;96.80
27162;DHT22;54464;50.558;9.704;2023-05-07T11:29:27;22.30;96.80
27162;DHT22;54464;50.558;9.704;2023-05-07T11:31:54;22.40;96.50
27162;DHT22;54464;50.558;9.704;2023-05-07T11:34:25;22.20;96.60
27162;DHT22;54464;50.558;9.704;2023-05-07T11:36:51;22.30;97.10
27162;DHT22;54464;50.558;9.704;2023-05-07T11:39:46;22.20;97.20
27162;DHT22;54464;50.558;9.704;2023-05-07T11:44:56;22.90;96.40
27162;DHT22;54464;50.558;9.704;2023-05-07T11:47:22;23.00;95.50
27162;DHT22;54464;50.558;9.704;2023-05-07T11:49:49;22.90;95.60
27162;DHT22;54464;50.558;9.704;2023-05-07T11:52:16;22.90;95.50
27162;DHT22;54464;50.558;9.704;2023-05-07T11:54:52;23.20;96.20
27162;DHT22;54464;50.558;9.704;2023-05-07T11:57:18;23.50;96.10
27162;DHT22;54464;50.558;9.704;2023-05-07T11:59:43;23.70;94.60
27162;DHT22;54464;50.558;9.704;2023-05-07T12:02:17;23.60;94.60
27162;DHT22;54464;50.558;9.704;2023-05-07T12:04:43;23.80;94.30
27162;DHT22;54464;50.558;9.704;2023-05-07T12:07:13;23.70;94.10
27162;DHT22;54464;50.558;9.704;2023-05-07T12:09:42;23.40;94.10
27162;DHT22;54464;50.558;9.704;2023-05-07T12:12:08;23.20;95.00
27162;DHT22;54464;50.558;9.704;2023-05-07T12:14:41;23.40;95.40
27162;DHT22;54464;50.558;9.704;2023-05-07T12:17:08;23.80;94.50
27162;DHT22;54464;50.558;9.704;2023-05-07T12:19:35;24.00;94.10
27162;DHT22;54464;50.558;9.704;2023-05-07T12:22:02;23.70;94.50
27162;DHT22;54464;50.558;9.704;2023-05-07T12:24:28;23.90;94.70
27162;DHT22;54464;50.558;9.704;2023-05-07T12:26:54;23.80;94.00
27162;DHT22;54464;50.558;9.704;2023-05-07T12:29:23;23.70;94.00
27162;DHT22;54464;50.558;9.704;2023-05-07T12:31:49;23.40;94.50
27162;DHT22;54464;50.558;9.704;2023-05-07T12:34:15;23.30;95.60
27162;DHT22;54464;50.558;9.704;2023-05-07T12:36:41;23.50;94.80
27162;DHT22;54464;50.558;9.704;2023-05-07T12:39:08;23.80;94.70
27162;DHT22;54464;50.558;9.704;2023-05-07T12:44:22;24.00;94.10
27162;DHT22;54464;50.558;9.704;2023-05-07T12:46:48;24.00;93.80
27162;DHT22;54464;50.558;9.704;2023-05-07T12:49:14;23.70;93.90
27162;DHT22;54464;50.558;9.704;2023-05-07T12:51:40;23.30;94.50
27162;DHT22;54464;50.558;9.704;2023-05-07T12:54:05;23.10;95.10
27162;DHT22;54464;50.558;9.704;2023-05-07T12:56:31;23.00;94.60
27162;DHT22;54464;50.558;9.704;2023-05-07T12:58:57;22.70;95.40
27162;DHT22;54464;50.558;9.704;2023-05-07T13:01:29;22.70;95.20
27162;DHT22;54464;50.558;9.704;2023-05-07T13:03:55;23.00;95.70
27162;DHT22;54464;50.558;9.704;2023-05-07T13:06:21;23.50;95.10
27162;DHT22;54464;50.558;9.704;2023-05-07T13:08:47;23.40;94.20
27162;DHT22;54464;50.558;9.704;2023-05-07T13:11:12;23.30;94.60
27162;DHT22;54464;50.558;9.704;2023-05-07T13:13:39;23.20;94.80
27162;DHT22;54464;50.558;9.704;2023-05-07T13:16:07;23.30;94.50
27162;DHT22;54464;50.558;9.704;2023-05-07T13:18:34;23.50;95.20
27162;DHT22;54464;50.558;9.704;2023-05-07T13:21:00;24.10;93.90
27162;DHT22;54464;50.558;9.704;2023-05-07T13:23:27;24.30;94.10
27162;DHT22;54464;50.558;9.704;2023-05-07T13:25:53;24.60;93.50
27162;DHT22;54464;50.558;9.704;2023-05-07T13:28:25;24.60;93.30
27162;DHT22;54464;50.558;9.704;2023-05-07T13:30:52;24.80;93.10
27162;DHT22;54464;50.558;9.704;2023-05-07T13:33:18;24.90;93.30
27162;DHT22;54464;50.558;9.704;2023-05-07T13:35:44;25.00;91.70
27162;DHT22;54464;50.558;9.704;2023-05-07T13:38:10;24.80;92.70
27162;DHT22;54464;50.558;9.704;2023-05-07T13:40:35;25.00;92.60
27162;DHT22;54464;50.558;9.704;2023-05-07T13:43:01;24.80;92.00
27162;DHT22;54464;50.558;9.704;2023-05-07T13:45:30;24.60;92.80
27162;DHT22;54464;50.558;9.704;2023-05-07T13:47:56;24.70;92.30
27162;DHT22;54464;50.558;9.704;2023-05-07T13:50:22;24.60;92.90
27162;DHT22;54464;50.558;9.704;2023-05-07T13:52:48;24.40;92.60
27162;DHT22;54464;50.558;9.704;2023-05-07T13:55:18;24.00;93.10
27162;DHT22;54464;50.558;9.704;2023-05-07T13:57:43;23.50;93.20
27162;DHT22;54464;50.558;9.704;2023-05-07T14:00:09;23.30;93.70
27162;DHT22;54464;50.558;9.704;2023-05-07T14:02:35;23.30;94.50
27162;DHT22;54464;50.558;9.704;2023-05-07T14:05:01;23.50;94.10
27162;DHT22;54464;50.558;9.704;2023-05-07T14:07:26;23.60;93.70
27162;DHT22;54464;50.558;9.704;2023-05-07T14:09:52;23.40;93.90
27162;DHT22;54464;50.558;9.704;2023-05-07T14:12:17;23.50;94.00
27162;DHT22;54464;50.558;9.704;2023-05-07T14:14:43;23.40;93.90
27162;DHT22;54464;50.558;9.704;2023-05-07T14:17:09;23.40;93.90
27162;DHT22;54464;50.558;9.704;2023-05-07T14:19:34;23.40;94.10
27162;DHT22;54464;50.558;9.704;2023-05-07T14:22:00;23.60;94.60
27162;DHT22;54464;50.558;9.704;2023-05-07T14:24:25;23.90;94.50
27162;DHT22;54464;50.558;9.704;2023-05-07T14:26:51;23.90;92.60
27162;DHT22;54464;50.558;9.704;2023-05-07T14:29:17;23.70;93.20
27162;DHT22;54464;50.558;9.704;2023-05-07T14:31:44;23.70;93.60
27162;DHT22;54464;50.558;9.704;2023-05-07T14:34:10;23.80;92.90
27162;DHT22;54464;50.558;9.704;2023-05-07T14:36:36;24.00;93.60
27162;DHT22;54464;50.558;9.704;2023-05-07T14:39:03;24.00;93.20
27162;DHT22;54464;50.558;9.704;2023-05-07T14:41:29;23.80;92.30
27162;DHT22;54464;50.558;9.704;2023-05-07T14:43:54;23.50;93.30
27162;DHT22;54464;50.558;9.704;2023-05-07T14:46:20;23.50;93.30
27162;DHT22;54464;50.558;9.704;2023-05-07T14:48:46;23.40;93.50
27162;DHT22;54464;50.558;9.704;2023-05-07T14:51:12;23.40;94.70
27162;DHT22;54464;50.558;9.704;2023-05-07T14:53:38;23.40;94.10
27162;DHT22;54464;50.558;9.704;2023-05-07T14:56:04;23.50;93.80
27162;DHT22;54464;50.558;9.704;2023-05-07T14:58:30;23.40;93.30
27162;DHT22;54464;50.558;9.704;2023-05-07T15:00:56;23.40;94.30
27162;DHT22;54464;50.558;9.704;2023-05-07T15:03:21;23.50;93.10
27162;DHT22;54464;50.558;9.704;2023-05-07T15:05:47;23.70;93.30
27162;DHT22;54464;50.558;9.704;2023-05-07T15:08:13;23.80;93.00
27162;DHT22;54464;50.558;9.704;2023-05-07T15:10:38;24.00;92.40
27162;DHT22;54464;50.558;9.704;2023-05-07T15:13:07;23.80;92.30
27162;DHT22;54464;50.558;9.704;2023-05-07T15:15:33;23.90;92.60
27162;DHT22;54464;50.558;9.704;2023-05-07T15:17:59;24.00;93.30
27162;DHT22;54464;50.558;9.704;2023-05-07T15:20:28;23.70;92.70
27162;DHT22;54464;50.558;9.704;2023-05-07T15:22:53;23.70;92.40
27162;DHT22;54464;50.558;9.704;2023-05-07T15:25:19;23.60;92.20
27162;DHT22;54464;50.558;9.704;2023-05-07T15:27:45;23.60;92.60
27162;DHT22;54464;50.558;9.704;2023-05-07T15:30:11;23.40;92.30
27162;DHT22;54464;50.558;9.704;2023-05-07T15:32:46;23.30;92.80
27162;DHT22;54464;50.558;9.704;2023-05-07T15:35:12;23.30;92.60
27162;DHT22;54464;50.558;9.704;2023-05-07T15:37:38;23.30;92.90
27162;DHT22;54464;50.558;9.704;2023-05-07T15:40:04;23.30;92.80
27162;DHT22;54464;50.558;9.704;2023-05-07T15:42:32;23.20;92.70
27162;DHT22;54464;50.558;9.704;2023-05-07T15:44:58;23.30;92.60
27162;DHT22;54464;50.558;9.704;2023-05-07T15:47:25;23.30;92.80
27162;DHT22;54464;50.558;9.704;2023-05-07T15:49:51;23.40;92.30